Terminal Aerodrome Forecast
Issued by NWS Mobile, AL

Current Version | Previous Version | Text Only | Print | Product List | Glossary On
Versions: 1 2 3 4 5 6 7 8 9 10 11 12 13 14 15 16 17 18 19 20 21 22 23 24 25 26 27 28 29 30 31 32 33 34
000
FTUS44 KMOB 031152
TAFMOB
TAF
KMOB 031152Z 0312/0412 04005KT P6SM SCT060 BKN090 BKN250
     FM031700 36005KT P6SM VCTS SCT040CB BKN250
     FM032100 18006KT P6SM SCT250
     FM040000 22004KT P6SM FEW250=

USA.gov is the U.S. government's official web portal to all federal, state and local government web resources and services.